»·PEaware :: N973SE KOXR-KSBP

N973SE :: KOXR-KSBP

FLIGHT INFORMATION

Flight Status: Arrived
Operator: Privately registered:
United States
More flights under this callsign
Pilot: Stig E. (4778)
Aircraft: CESSNA 310
(C310)
More flights by this aircraft type
Origin: KOXR Oxnard
United States
Destination: KSBP San Luis Co Regl
United States
More flights between these airports :: More routes between these airports
Route: CMA6 FIM V299 GMN FLW MISHI
File this flight plan on PilotEdge
Remarks:
Altitude:
(Current/Filed)
12,500ft
Speed:
(Current/Filed)
170kts
Departed: 01-Feb-19 10:21 PM
Arrived: 01-Feb-19 11:14 PM
Distance/Time
Traveled:
94nm/0:53
Distance/Time
To Go:
Arrived

Flight Plot

Page will automatically refresh every two minutes.

Flight plan parsing failed; only flown route is shown


Map Options




Map Legend


Flown Route
Filed Route
Departure Airport
Arrival Airport
Navaid (VOR, NDB)
Fix

Horizontal Profiles

Position Reports

Time Latitude Longitude Heading Altitude Ground
Speed
01-Feb-19 21:44 34.198719 -119.202074 0 43ft 0kts
01-Feb-19 21:45 34.198719 -119.202074 0 43ft 0kts
01-Feb-19 21:46 34.198719 -119.202074 0 43ft 0kts
01-Feb-19 21:47 34.198719 -119.202074 0 43ft 0kts
01-Feb-19 21:48 34.198719 -119.202074 0 43ft 0kts
01-Feb-19 21:49 34.198719 -119.202074 0 43ft 0kts
01-Feb-19 21:50 34.198719 -119.202074 0 43ft 0kts
01-Feb-19 21:51 34.198719 -119.202074 0 43ft 0kts
01-Feb-19 21:52 34.198719 -119.202074 0 43ft 0kts
01-Feb-19 21:53 34.198719 -119.202074 0 43ft 0kts
01-Feb-19 21:54 34.198719 -119.202074 0 43ft 0kts
01-Feb-19 21:55 34.198719 -119.202074 0 43ft 0kts
01-Feb-19 21:56 34.198719 -119.202074 0 43ft 0kts
01-Feb-19 21:57 34.198719 -119.202074 0 43ft 0kts
01-Feb-19 21:58 34.198719 -119.202074 0 43ft 0kts
01-Feb-19 21:59 34.198719 -119.202074 0 43ft 0kts
01-Feb-19 22:00 34.198719 -119.202074 0 43ft 0kts
01-Feb-19 22:01 34.198719 -119.202074 0 43ft 0kts
01-Feb-19 22:02 34.198719 -119.202074 0 43ft 0kts
01-Feb-19 22:03 34.198719 -119.202074 0 43ft 0kts
01-Feb-19 22:04 34.198719 -119.202074 0 43ft 0kts
01-Feb-19 22:05 34.198719 -119.202074 0 43ft 0kts
01-Feb-19 22:06 34.198719 -119.202074 0 43ft 0kts
01-Feb-19 22:07 34.198719 -119.202074 0 43ft 0kts
01-Feb-19 22:08 34.198719 -119.202074 0 43ft 0kts
01-Feb-19 22:09 34.198719 -119.202074 0 43ft 0kts
01-Feb-19 22:10 34.198719 -119.202074 0 43ft 0kts
01-Feb-19 22:11 34.198719 -119.202074 0 43ft 0kts
01-Feb-19 22:12 34.198719 -119.202074 0 43ft 0kts
01-Feb-19 22:13 34.199695 -119.203485 272 42ft 17kts
01-Feb-19 22:14 34.199819 -119.210374 269 37ft 20kts
01-Feb-19 22:15 34.199813 -119.216528 267 33ft 6kts
01-Feb-19 22:16 34.200016 -119.217003 5 32ft 0kts
01-Feb-19 22:17 34.200016 -119.217003 5 32ft 0kts
01-Feb-19 22:18 34.200016 -119.217003 5 32ft 0kts
01-Feb-19 22:19 34.200059 -119.216998 6 32ft 2kts
01-Feb-19 22:20 34.200692 -119.204430 92 211ft 107kts
01-Feb-19 22:21 34.201230 -119.162048 88 1384ft 143kts
01-Feb-19 22:22 34.202941 -119.112800 87 2484ft 147kts
01-Feb-19 22:23 34.212374 -119.065248 84 3691ft 144kts
01-Feb-19 22:24 34.215532 -119.017880 90 4876ft 142kts
01-Feb-19 22:25 34.220177 -118.971062 49 6074ft 156kts
01-Feb-19 22:26 34.261074 -118.947395 36 7278ft 165kts
01-Feb-19 22:27 34.301368 -118.919784 37 8464ft 164kts
01-Feb-19 22:29 34.341241 -118.891940 36 9549ft 170kts
01-Feb-19 22:30 34.388815 -118.879796 1 10559ft 185kts
01-Feb-19 22:31 34.442126 -118.877407 358 11571ft 195kts
01-Feb-19 22:32 34.497205 -118.874986 357 12479ft 205kts
01-Feb-19 22:33 34.559494 -118.872202 358 12503ft 235kts
01-Feb-19 22:34 34.626051 -118.869195 358 12494ft 240kts
01-Feb-19 22:35 34.692453 -118.866194 358 12485ft 234kts
01-Feb-19 22:36 34.757799 -118.863265 358 12476ft 232kts
01-Feb-19 22:37 34.809815 -118.886289 282 12467ft 195kts
01-Feb-19 22:38 34.828898 -118.948878 279 12442ft 193kts
01-Feb-19 22:39 34.847059 -119.010580 278 12414ft 190kts
01-Feb-19 22:40 34.863961 -119.068257 276 12281ft 167kts
01-Feb-19 22:41 34.879318 -119.121220 276 11791ft 163kts
01-Feb-19 22:42 34.894563 -119.173814 276 11308ft 165kts
01-Feb-19 22:43 34.910295 -119.228153 277 10834ft 174kts
01-Feb-19 22:44 34.926770 -119.285015 278 10356ft 179kts
01-Feb-19 22:45 34.943489 -119.342854 278 9879ft 182kts
01-Feb-19 22:45 34.957555 -119.391624 278 9481ft 183kts
01-Feb-19 22:47 34.977457 -119.460787 279 8924ft 185kts
01-Feb-19 22:48 34.994587 -119.520449 280 8449ft 187kts
01-Feb-19 22:49 35.011923 -119.580959 280 7973ft 188kts
01-Feb-19 22:49 35.026398 -119.631607 281 7578ft 189kts
01-Feb-19 22:50 35.043947 -119.693117 281 7099ft 190kts
01-Feb-19 22:52 35.064453 -119.765076 282 6552ft 191kts
01-Feb-19 22:52 35.078371 -119.813955 281 6563ft 177kts
01-Feb-19 22:53 35.093909 -119.870755 267 6557ft 168kts
01-Feb-19 22:54 35.098052 -119.927514 265 6552ft 167kts
01-Feb-19 22:55 35.102149 -119.983979 265 6533ft 165kts
01-Feb-19 22:56 35.106138 -120.040561 265 6342ft 174kts
01-Feb-19 22:57 35.110206 -120.101326 267 5835ft 182kts
01-Feb-19 22:58 35.114444 -120.163239 267 5317ft 184kts
01-Feb-19 22:59 35.118767 -120.225507 266 4768ft 179kts
01-Feb-19 23:00 35.122824 -120.284958 267 4214ft 173kts
01-Feb-19 23:01 35.126815 -120.343570 269 3712ft 172kts
01-Feb-19 23:02 35.130769 -120.401463 269 3223ft 171kts
01-Feb-19 23:03 35.134615 -120.457978 270 2991ft 158kts
01-Feb-19 23:04 35.164307 -120.495854 319 2997ft 155kts
01-Feb-19 23:05 35.197189 -120.528691 319 2998ft 150kts
01-Feb-19 23:06 35.229332 -120.560939 319 2999ft 148kts
01-Feb-19 23:07 35.261160 -120.592864 319 2999ft 148kts
01-Feb-19 23:08 35.291528 -120.627289 303 2998ft 149kts
01-Feb-19 23:09 35.303281 -120.668645 237 2464ft 126kts
01-Feb-19 23:10 35.277293 -120.696948 196 1328ft 131kts
01-Feb-19 23:11 35.256091 -120.673832 130 740ft 96kts
01-Feb-19 23:12 35.241240 -120.647753 126 231ft 85kts
01-Feb-19 23:13 35.237686 -120.639276 71 215ft 10kts
01-Feb-19 23:14 35.238344 -120.639274 264 216ft 0kts
01-Feb-19 23:15 35.238344 -120.639274 264 216ft 0kts
01-Feb-19 23:16 35.238344 -120.639274 264 216ft 0kts

Navigation Log

Ident Type
Flight plan parsing failed, navigation log unavailable